SWA2053 KFLL-KBWI
Flight info
| Callsign | SWA2053 |
|---|---|
| Flight time | 1h 59m |
| Altitude | 35000 |
| Route | FEALX2 ETECK GRUBR Y299 SEELO GARIC ZORDO Q111 RUKRR THHMP RAVNN7 |
| Aircraft | B738/M-SDE2E3FGHIRWXY/LB1 |
Departure
| Time | 2026-05-06 19:25 |
|---|---|
| Airport | Fort Lauderdale Hollywood International Airport (KFLL) |
Arrival
| Time | 2026-05-06 21:24 |
|---|---|
| Airport | Baltimore/Washington International Thurgood Marshall Airport (KBWI) |
| Time | Latitude | Longitude | Altitude | Speed | Heading |
|---|---|---|---|---|---|
| 2026-05-06 19:16 | 26.06878 | -80.14517 | 12 ft | 0 kts | 360° |
| 2026-05-06 19:21 | 26.06880 | -80.14517 | 12 ft | 0 kts | 347° |
| 2026-05-06 19:21 | 26.06880 | -80.14530 | 12 ft | 4 kts | 230° |
| 2026-05-06 19:22 | 26.06807 | -80.14599 | 12 ft | 21 kts | 229° |
| 2026-05-06 19:22 | 26.06762 | -80.14800 | 12 ft | 27 kts | 278° |
| 2026-05-06 19:22 | 26.06710 | -80.14959 | 12 ft | 19 kts | 243° |
| 2026-05-06 19:22 | 26.06696 | -80.15117 | 12 ft | 23 kts | 272° |
| 2026-05-06 19:23 | 26.06699 | -80.15308 | 12 ft | 23 kts | 270° |
| 2026-05-06 19:23 | 26.06698 | -80.15479 | 12 ft | 20 kts | 269° |
| 2026-05-06 19:23 | 26.06697 | -80.15606 | 12 ft | 1 kts | 269° |
| 2026-05-06 19:23 | 26.06697 | -80.15607 | 12 ft | 0 kts | 269° |
| 2026-05-06 19:24 | 26.06690 | -80.15638 | 12 ft | 11 kts | 248° |
| 2026-05-06 19:24 | 26.06592 | -80.15640 | 12 ft | 23 kts | 106° |
| 2026-05-06 19:24 | 26.06584 | -80.15165 | 12 ft | 103 kts | 91° |
| 2026-05-06 19:25 | 26.06578 | -80.14089 | 35 ft | 170 kts | 90° |
| 2026-05-06 19:25 | 26.06560 | -80.12779 | 876 ft | 173 kts | 93° |
| 2026-05-06 19:25 | 26.06525 | -80.11418 | 1637 ft | 187 kts | 86° |
| 2026-05-06 19:25 | 26.06615 | -80.09901 | 2261 ft | 208 kts | 87° |
| 2026-05-06 19:26 | 26.06657 | -80.08237 | 2949 ft | 228 kts | 89° |
| 2026-05-06 19:26 | 26.06673 | -80.06386 | 3642 ft | 249 kts | 89° |
| 2026-05-06 19:26 | 26.06689 | -80.04412 | 4461 ft | 264 kts | 89° |
| 2026-05-06 19:26 | 26.06713 | -80.02367 | 5440 ft | 272 kts | 86° |
| 2026-05-06 19:27 | 26.07112 | -80.00341 | 6439 ft | 276 kts | 62° |
| 2026-05-06 19:27 | 26.08260 | -79.98652 | 7524 ft | 276 kts | 47° |
| 2026-05-06 19:27 | 26.09497 | -79.97061 | 8551 ft | 279 kts | 49° |
| 2026-05-06 19:27 | 26.10729 | -79.95400 | 9566 ft | 281 kts | 49° |
| 2026-05-06 19:28 | 26.11954 | -79.93742 | 10485 ft | 287 kts | 49° |
| 2026-05-06 19:28 | 26.13276 | -79.91966 | 10972 ft | 309 kts | 49° |
| 2026-05-06 19:28 | 26.14693 | -79.90058 | 11444 ft | 331 kts | 49° |
| 2026-05-06 19:28 | 26.16173 | -79.88020 | 11971 ft | 349 kts | 51° |
| 2026-05-06 19:29 | 26.17630 | -79.85811 | 12789 ft | 357 kts | 52° |
| 2026-05-06 19:29 | 26.19082 | -79.83543 | 13605 ft | 365 kts | 52° |
| 2026-05-06 19:29 | 26.20554 | -79.81251 | 14453 ft | 370 kts | 51° |
| 2026-05-06 19:29 | 26.22076 | -79.78909 | 15282 ft | 377 kts | 51° |
| 2026-05-06 19:30 | 26.23618 | -79.76536 | 16060 ft | 384 kts | 51° |
| 2026-05-06 19:30 | 26.25186 | -79.74119 | 16830 ft | 389 kts | 50° |
| 2026-05-06 19:30 | 26.26783 | -79.71658 | 17557 ft | 395 kts | 50° |
| 2026-05-06 19:30 | 26.28408 | -79.69170 | 18251 ft | 401 kts | 49° |
| 2026-05-06 19:31 | 26.30217 | -79.66790 | 18963 ft | 404 kts | 43° |
| 2026-05-06 19:31 | 26.32166 | -79.64529 | 19628 ft | 409 kts | 41° |
| 2026-05-06 19:31 | 26.36181 | -79.59927 | 20953 ft | 420 kts | 41° |
| 2026-05-06 19:32 | 26.38206 | -79.57605 | 21636 ft | 424 kts | 41° |
| 2026-05-06 19:32 | 26.40264 | -79.55234 | 22257 ft | 430 kts | 41° |
| 2026-05-06 19:32 | 26.42346 | -79.52838 | 22907 ft | 434 kts | 41° |
| 2026-05-06 19:32 | 26.44472 | -79.50394 | 23535 ft | 439 kts | 41° |
| 2026-05-06 19:33 | 26.46611 | -79.47935 | 24155 ft | 443 kts | 41° |
| 2026-05-06 19:33 | 26.48764 | -79.45454 | 24795 ft | 447 kts | 40° |
| 2026-05-06 19:33 | 26.50935 | -79.42952 | 25397 ft | 451 kts | 40° |
| 2026-05-06 19:33 | 26.53159 | -79.40510 | 26011 ft | 453 kts | 38° |
| 2026-05-06 19:34 | 26.55527 | -79.38204 | 26585 ft | 453 kts | 32° |
| 2026-05-06 19:34 | 26.58132 | -79.36214 | 27182 ft | 453 kts | 27° |
| 2026-05-06 19:34 | 26.60819 | -79.34335 | 27764 ft | 457 kts | 27° |
| 2026-05-06 19:34 | 26.63495 | -79.32478 | 28313 ft | 460 kts | 27° |
| 2026-05-06 19:35 | 26.66249 | -79.30570 | 28877 ft | 463 kts | 26° |
| 2026-05-06 19:35 | 26.68981 | -79.28687 | 29518 ft | 464 kts | 26° |
| 2026-05-06 19:35 | 26.71719 | -79.26801 | 30199 ft | 463 kts | 26° |
| 2026-05-06 19:35 | 26.74460 | -79.24923 | 30851 ft | 463 kts | 26° |
| 2026-05-06 19:36 | 26.77191 | -79.23051 | 31512 ft | 462 kts | 26° |
| 2026-05-06 19:36 | 26.79919 | -79.21178 | 32025 ft | 461 kts | 26° |
| 2026-05-06 19:36 | 26.82647 | -79.19310 | 32665 ft | 460 kts | 25° |
| 2026-05-06 19:36 | 26.85392 | -79.17432 | 33187 ft | 461 kts | 25° |
| 2026-05-06 19:37 | 26.88121 | -79.15565 | 33880 ft | 459 kts | 25° |
| 2026-05-06 19:37 | 26.90802 | -79.13727 | 34482 ft | 458 kts | 25° |
| 2026-05-06 19:37 | 26.93506 | -79.11874 | 35070 ft | 457 kts | 25° |
| 2026-05-06 19:37 | 26.95324 | -79.10632 | 35083 ft | 461 kts | 25° |
| 2026-05-06 19:38 | 26.98951 | -79.08145 | 35068 ft | 450 kts | 25° |
| 2026-05-06 19:38 | 27.01589 | -79.06332 | 35072 ft | 443 kts | 25° |
| 2026-05-06 19:38 | 27.06906 | -79.02699 | 35075 ft | 450 kts | 24° |
| 2026-05-06 19:39 | 27.12340 | -78.98994 | 35075 ft | 468 kts | 25° |
| 2026-05-06 19:39 | 27.17939 | -78.95150 | 35065 ft | 469 kts | 25° |
| 2026-05-06 19:40 | 27.23444 | -78.91352 | 35072 ft | 464 kts | 25° |
| 2026-05-06 19:40 | 27.28932 | -78.87568 | 35071 ft | 466 kts | 25° |
| 2026-05-06 19:41 | 27.34473 | -78.83742 | 35071 ft | 465 kts | 25° |
| 2026-05-06 19:41 | 27.40123 | -78.80373 | 35069 ft | 455 kts | 14° |
| 2026-05-06 19:42 | 27.46208 | -78.78880 | 35077 ft | 443 kts | 1° |
| 2026-05-06 19:42 | 27.52312 | -78.77998 | 35068 ft | 444 kts | 1° |
| 2026-05-06 19:43 | 27.58436 | -78.77085 | 35068 ft | 445 kts | 1° |
| 2026-05-06 19:43 | 27.64589 | -78.76173 | 35067 ft | 444 kts | 1° |
| 2026-05-06 19:44 | 27.70697 | -78.75275 | 35071 ft | 443 kts | 1° |
| 2026-05-06 19:44 | 27.76828 | -78.74377 | 35073 ft | 443 kts | 1° |
| 2026-05-06 19:45 | 27.82924 | -78.73476 | 35070 ft | 443 kts | 1° |
| 2026-05-06 19:45 | 27.89036 | -78.72580 | 35070 ft | 443 kts | 1° |
| 2026-05-06 19:46 | 27.95155 | -78.71679 | 35073 ft | 442 kts | 1° |
| 2026-05-06 19:46 | 28.01241 | -78.70779 | 35071 ft | 442 kts | 1° |
| 2026-05-06 19:47 | 28.07349 | -78.69879 | 35070 ft | 442 kts | 1° |
| 2026-05-06 19:47 | 28.13445 | -78.68973 | 35070 ft | 443 kts | 1° |
| 2026-05-06 19:48 | 28.19575 | -78.68071 | 35071 ft | 442 kts | 1° |
| 2026-05-06 19:48 | 28.25687 | -78.67162 | 35070 ft | 441 kts | 1° |
| 2026-05-06 19:49 | 28.31753 | -78.66260 | 35071 ft | 442 kts | 1° |
| 2026-05-06 19:49 | 28.37864 | -78.65353 | 35070 ft | 441 kts | 1° |
| 2026-05-06 19:50 | 28.43946 | -78.64445 | 35072 ft | 443 kts | 0° |
| 2026-05-06 19:50 | 28.50042 | -78.63539 | 35070 ft | 441 kts | 0° |
| 2026-05-06 19:51 | 28.56125 | -78.62640 | 35071 ft | 440 kts | 0° |
| 2026-05-06 19:51 | 28.62229 | -78.61726 | 35070 ft | 443 kts | 0° |
| 2026-05-06 19:52 | 28.68338 | -78.60815 | 35070 ft | 442 kts | 0° |
| 2026-05-06 19:52 | 28.74413 | -78.59906 | 35070 ft | 440 kts | 0° |
| 2026-05-06 19:53 | 28.80498 | -78.58994 | 35071 ft | 438 kts | 0° |
| 2026-05-06 19:53 | 28.86550 | -78.58089 | 35071 ft | 441 kts | 0° |
| 2026-05-06 19:54 | 28.92643 | -78.57173 | 35069 ft | 441 kts | 0° |
| 2026-05-06 19:54 | 28.98730 | -78.56255 | 35068 ft | 440 kts | 0° |
| 2026-05-06 19:55 | 29.04823 | -78.55348 | 35070 ft | 439 kts | 0° |
| 2026-05-06 19:55 | 29.10867 | -78.54434 | 35071 ft | 440 kts | 0° |
| 2026-05-06 19:56 | 29.16951 | -78.53517 | 35072 ft | 441 kts | 0° |
| 2026-05-06 19:56 | 29.23032 | -78.52596 | 35069 ft | 440 kts | 0° |
| 2026-05-06 19:57 | 29.29106 | -78.51676 | 35071 ft | 439 kts | 360° |
| 2026-05-06 19:57 | 29.35169 | -78.50766 | 35072 ft | 440 kts | 360° |
| 2026-05-06 19:58 | 29.41224 | -78.49850 | 35072 ft | 440 kts | 360° |
| 2026-05-06 19:58 | 29.47310 | -78.49097 | 35069 ft | 434 kts | 354° |
| 2026-05-06 19:59 | 29.53253 | -78.49403 | 35073 ft | 427 kts | 348° |
| 2026-05-06 19:59 | 29.59203 | -78.49976 | 35071 ft | 428 kts | 348° |
| 2026-05-06 20:00 | 29.65119 | -78.50558 | 35070 ft | 426 kts | 348° |
| 2026-05-06 20:00 | 29.71017 | -78.51163 | 35071 ft | 426 kts | 348° |
| 2026-05-06 20:01 | 29.76929 | -78.51789 | 35071 ft | 429 kts | 348° |
| 2026-05-06 20:01 | 29.82879 | -78.52433 | 35069 ft | 428 kts | 348° |
| 2026-05-06 20:02 | 29.88771 | -78.53068 | 35071 ft | 425 kts | 347° |
| 2026-05-06 20:02 | 29.94672 | -78.53701 | 35075 ft | 429 kts | 347° |
| 2026-05-06 20:03 | 30.00642 | -78.54356 | 35072 ft | 427 kts | 347° |
| 2026-05-06 20:03 | 30.06537 | -78.54980 | 35069 ft | 424 kts | 347° |
| 2026-05-06 20:04 | 30.12440 | -78.55546 | 35073 ft | 429 kts | 350° |
| 2026-05-06 20:04 | 30.18459 | -78.55200 | 35074 ft | 440 kts | 358° |
| 2026-05-06 20:05 | 30.24552 | -78.54419 | 35069 ft | 437 kts | 358° |
| 2026-05-06 20:05 | 30.30556 | -78.53619 | 35073 ft | 435 kts | 358° |
| 2026-05-06 20:06 | 30.36625 | -78.52780 | 35072 ft | 439 kts | 358° |
| 2026-05-06 20:06 | 30.42714 | -78.51923 | 35071 ft | 441 kts | 358° |
| 2026-05-06 20:07 | 30.48734 | -78.50971 | 35073 ft | 437 kts | 359° |
| 2026-05-06 20:07 | 30.54785 | -78.49992 | 35072 ft | 438 kts | 359° |
| 2026-05-06 20:08 | 30.60808 | -78.49007 | 35070 ft | 438 kts | 359° |
| 2026-05-06 20:08 | 30.66856 | -78.48016 | 35073 ft | 438 kts | 359° |
| 2026-05-06 20:09 | 30.72931 | -78.47038 | 35072 ft | 442 kts | 359° |
| 2026-05-06 20:09 | 30.78998 | -78.46046 | 35073 ft | 439 kts | 359° |
| 2026-05-06 20:10 | 30.85007 | -78.45064 | 35071 ft | 437 kts | 359° |
| 2026-05-06 20:10 | 30.91046 | -78.44081 | 35069 ft | 438 kts | 358° |
| 2026-05-06 20:11 | 30.97075 | -78.43102 | 35070 ft | 439 kts | 359° |
| 2026-05-06 20:11 | 31.03137 | -78.42096 | 35071 ft | 438 kts | 359° |
| 2026-05-06 20:12 | 31.09189 | -78.41103 | 35068 ft | 439 kts | 359° |
| 2026-05-06 20:12 | 31.15213 | -78.40112 | 35069 ft | 435 kts | 359° |
| 2026-05-06 20:13 | 31.21223 | -78.39140 | 35070 ft | 441 kts | 359° |
| 2026-05-06 20:13 | 31.27288 | -78.38140 | 35066 ft | 440 kts | 359° |
| 2026-05-06 20:14 | 31.33371 | -78.37131 | 35068 ft | 437 kts | 359° |
| 2026-05-06 20:14 | 31.39340 | -78.36155 | 35068 ft | 435 kts | 358° |
| 2026-05-06 20:15 | 31.45401 | -78.35159 | 35067 ft | 441 kts | 359° |
| 2026-05-06 20:15 | 31.51441 | -78.34157 | 35064 ft | 437 kts | 359° |
| 2026-05-06 20:16 | 31.57451 | -78.33161 | 35067 ft | 435 kts | 359° |
| 2026-05-06 20:16 | 31.63434 | -78.32165 | 35068 ft | 439 kts | 359° |
| 2026-05-06 20:17 | 31.69536 | -78.31158 | 35065 ft | 441 kts | 359° |
| 2026-05-06 20:17 | 31.75563 | -78.30158 | 35064 ft | 437 kts | 359° |
| 2026-05-06 20:18 | 31.81581 | -78.29166 | 35067 ft | 439 kts | 358° |
| 2026-05-06 20:18 | 31.87673 | -78.28162 | 35065 ft | 439 kts | 359° |
| 2026-05-06 20:19 | 31.93699 | -78.27153 | 35067 ft | 441 kts | 358° |
| 2026-05-06 20:19 | 31.99766 | -78.26144 | 35062 ft | 436 kts | 358° |
| 2026-05-06 20:20 | 32.05787 | -78.25187 | 35067 ft | 437 kts | 357° |
| 2026-05-06 20:20 | 32.11849 | -78.24313 | 35060 ft | 437 kts | 357° |
| 2026-05-06 20:21 | 32.17822 | -78.23438 | 35066 ft | 434 kts | 357° |
| 2026-05-06 20:21 | 32.23865 | -78.22565 | 35064 ft | 439 kts | 358° |
| 2026-05-06 20:22 | 32.29919 | -78.21681 | 35058 ft | 436 kts | 357° |
| 2026-05-06 20:22 | 32.35939 | -78.20795 | 35057 ft | 436 kts | 358° |
| 2026-05-06 20:23 | 32.41988 | -78.19914 | 35061 ft | 439 kts | 358° |
| 2026-05-06 20:23 | 32.48046 | -78.19013 | 35052 ft | 438 kts | 358° |
| 2026-05-06 20:24 | 32.51702 | -78.18483 | 35057 ft | 434 kts | 358° |
| 2026-05-06 20:24 | 32.57575 | -78.17615 | 35057 ft | 438 kts | 357° |
| 2026-05-06 20:25 | 32.63674 | -78.16732 | 35054 ft | 442 kts | 357° |
| 2026-05-06 20:25 | 32.69762 | -78.15840 | 35054 ft | 439 kts | 358° |
| 2026-05-06 20:26 | 32.75819 | -78.14928 | 35057 ft | 439 kts | 358° |
| 2026-05-06 20:26 | 32.81878 | -78.14037 | 35052 ft | 441 kts | 358° |
| 2026-05-06 20:27 | 32.87969 | -78.13113 | 35046 ft | 439 kts | 358° |
| 2026-05-06 20:27 | 32.93980 | -78.12232 | 35033 ft | 439 kts | 358° |
| 2026-05-06 20:28 | 33.00062 | -78.11314 | 35043 ft | 441 kts | 358° |
| 2026-05-06 20:28 | 33.05418 | -78.10527 | 35043 ft | 438 kts | 358° |
| 2026-05-06 20:29 | 33.06698 | -78.10339 | 35042 ft | 437 kts | 358° |
| 2026-05-06 20:30 | 33.14057 | -78.09225 | 35038 ft | 441 kts | 358° |
| 2026-05-06 20:31 | 33.20193 | -78.08315 | 35027 ft | 444 kts | 358° |
| 2026-05-06 20:31 | 33.24718 | -78.07650 | 35037 ft | 443 kts | 358° |
| 2026-05-06 20:31 | 33.24810 | -78.07636 | 35322 ft | 443 kts | 360° |
| 2026-05-06 20:32 | 33.27933 | -78.07199 | 35065 ft | 455 kts | 0° |
| 2026-05-06 20:32 | 33.31879 | -78.07082 | 35031 ft | 470 kts | 358° |
| 2026-05-06 20:32 | 33.35159 | -78.07161 | 35048 ft | 481 kts | 357° |
| 2026-05-06 20:33 | 33.38569 | -78.07250 | 35045 ft | 494 kts | 0° |
| 2026-05-06 20:33 | 33.42057 | -78.07123 | 35038 ft | 505 kts | 5° |
| 2026-05-06 20:33 | 33.45548 | -78.06647 | 35037 ft | 516 kts | 9° |
| 2026-05-06 20:33 | 33.49146 | -78.05905 | 35035 ft | 528 kts | 12° |
| 2026-05-06 20:34 | 33.52782 | -78.05048 | 35034 ft | 539 kts | 14° |
| 2026-05-06 20:34 | 33.56470 | -78.04102 | 35034 ft | 551 kts | 14° |
| 2026-05-06 20:34 | 33.60255 | -78.03189 | 35034 ft | 561 kts | 12° |
| 2026-05-06 20:35 | 33.67945 | -78.01656 | 35031 ft | 554 kts | 10° |
| 2026-05-06 20:35 | 33.75561 | -78.00262 | 35037 ft | 554 kts | 10° |
| 2026-05-06 20:36 | 33.83221 | -77.98917 | 35035 ft | 560 kts | 9° |
| 2026-05-06 20:36 | 33.90929 | -77.97636 | 35035 ft | 556 kts | 9° |
| 2026-05-06 20:37 | 33.98560 | -77.96400 | 35037 ft | 557 kts | 8° |
| 2026-05-06 20:37 | 34.06262 | -77.95213 | 35035 ft | 560 kts | 8° |
| 2026-05-06 20:38 | 34.13964 | -77.94056 | 35035 ft | 554 kts | 8° |
| 2026-05-06 20:38 | 34.21629 | -77.92842 | 35037 ft | 558 kts | 9° |
| 2026-05-06 20:39 | 34.29339 | -77.91641 | 35034 ft | 559 kts | 8° |
| 2026-05-06 20:39 | 34.37018 | -77.90425 | 35035 ft | 556 kts | 8° |
| 2026-05-06 20:40 | 34.44705 | -77.89221 | 35036 ft | 555 kts | 8° |
| 2026-05-06 20:40 | 34.52341 | -77.87992 | 35036 ft | 556 kts | 9° |
| 2026-05-06 20:41 | 34.60054 | -77.86799 | 35036 ft | 559 kts | 8° |
| 2026-05-06 20:41 | 34.67767 | -77.85537 | 35036 ft | 558 kts | 9° |
| 2026-05-06 20:42 | 34.75436 | -77.84338 | 35037 ft | 557 kts | 8° |
| 2026-05-06 20:42 | 34.83055 | -77.83141 | 35037 ft | 554 kts | 9° |
| 2026-05-06 20:43 | 34.90710 | -77.81742 | 35038 ft | 557 kts | 11° |
| 2026-05-06 20:43 | 34.98323 | -77.79937 | 35038 ft | 556 kts | 13° |
| 2026-05-06 20:44 | 35.05908 | -77.78213 | 35039 ft | 557 kts | 12° |
| 2026-05-06 20:44 | 35.13548 | -77.76551 | 35037 ft | 555 kts | 12° |
| 2026-05-06 20:45 | 35.21109 | -77.74807 | 35038 ft | 554 kts | 12° |
| 2026-05-06 20:45 | 35.28689 | -77.73111 | 35037 ft | 557 kts | 12° |
| 2026-05-06 20:46 | 35.36336 | -77.71384 | 35036 ft | 558 kts | 12° |
| 2026-05-06 20:46 | 35.41297 | -77.70258 | 35036 ft | 556 kts | 11° |
| 2026-05-06 20:47 | 35.48481 | -77.68613 | 35036 ft | 570 kts | 12° |
| 2026-05-06 20:47 | 35.56368 | -77.66852 | 35036 ft | 578 kts | 12° |
| 2026-05-06 20:48 | 35.64253 | -77.65166 | 35036 ft | 576 kts | 9° |
| 2026-05-06 20:48 | 35.72200 | -77.63822 | 35038 ft | 573 kts | 9° |
| 2026-05-06 20:49 | 35.80092 | -77.62450 | 35039 ft | 575 kts | 9° |
| 2026-05-06 20:49 | 35.87976 | -77.61053 | 35036 ft | 574 kts | 10° |
| 2026-05-06 20:50 | 35.95917 | -77.59608 | 35038 ft | 573 kts | 10° |
| 2026-05-06 20:50 | 36.03783 | -77.58203 | 35039 ft | 576 kts | 9° |
| 2026-05-06 20:51 | 36.11676 | -77.56812 | 35036 ft | 572 kts | 9° |
| 2026-05-06 20:51 | 36.19581 | -77.55393 | 35039 ft | 574 kts | 9° |
| 2026-05-06 20:52 | 36.27486 | -77.53956 | 35038 ft | 575 kts | 10° |
| 2026-05-06 20:52 | 36.35360 | -77.52528 | 35038 ft | 575 kts | 9° |
| 2026-05-06 20:53 | 36.43261 | -77.51085 | 35038 ft | 573 kts | 9° |
| 2026-05-06 20:53 | 36.51128 | -77.49657 | 35038 ft | 572 kts | 9° |
| 2026-05-06 20:54 | 36.59003 | -77.48253 | 35039 ft | 573 kts | 9° |
| 2026-05-06 20:54 | 36.66885 | -77.46824 | 35039 ft | 574 kts | 9° |
| 2026-05-06 20:55 | 36.74804 | -77.45392 | 35039 ft | 575 kts | 9° |
| 2026-05-06 20:55 | 36.82698 | -77.44035 | 35039 ft | 574 kts | 10° |
| 2026-05-06 20:56 | 36.90597 | -77.42609 | 35039 ft | 574 kts | 9° |
| 2026-05-06 20:56 | 36.98491 | -77.41129 | 35039 ft | 576 kts | 9° |
| 2026-05-06 20:57 | 37.06372 | -77.39696 | 35039 ft | 572 kts | 9° |
| 2026-05-06 20:57 | 37.14299 | -77.38270 | 35040 ft | 575 kts | 9° |
| 2026-05-06 20:58 | 37.21735 | -77.36887 | 35040 ft | 576 kts | 9° |
| 2026-05-06 20:58 | 37.28567 | -77.35664 | 35002 ft | 573 kts | 9° |
| 2026-05-06 20:58 | 37.31269 | -77.34930 | 34474 ft | 538 kts | 6° |
| 2026-05-06 20:59 | 37.34805 | -77.33782 | 34226 ft | 511 kts | 5° |
| 2026-05-06 20:59 | 37.38169 | -77.32850 | 34129 ft | 479 kts | 1° |
| 2026-05-06 20:59 | 37.41337 | -77.32249 | 34034 ft | 452 kts | 358° |
| 2026-05-06 20:59 | 37.44409 | -77.31877 | 33853 ft | 430 kts | 355° |
| 2026-05-06 21:00 | 37.47342 | -77.31612 | 33406 ft | 419 kts | 354° |
| 2026-05-06 21:00 | 37.50235 | -77.31312 | 32418 ft | 427 kts | 356° |
| 2026-05-06 21:00 | 37.53227 | -77.30769 | 31070 ft | 452 kts | 0° |
| 2026-05-06 21:00 | 37.56395 | -77.30039 | 29645 ft | 471 kts | 1° |
| 2026-05-06 21:01 | 37.59626 | -77.29296 | 28267 ft | 478 kts | 1° |
| 2026-05-06 21:01 | 37.62890 | -77.28567 | 26905 ft | 484 kts | 1° |
| 2026-05-06 21:01 | 37.66205 | -77.27795 | 25532 ft | 487 kts | 2° |
| 2026-05-06 21:01 | 37.69471 | -77.27038 | 24310 ft | 485 kts | 2° |
| 2026-05-06 21:02 | 37.72789 | -77.26251 | 23204 ft | 479 kts | 2° |
| 2026-05-06 21:02 | 37.75989 | -77.25417 | 22886 ft | 456 kts | 3° |
| 2026-05-06 21:02 | 37.78982 | -77.24612 | 22861 ft | 428 kts | 2° |
| 2026-05-06 21:02 | 37.81807 | -77.23845 | 22860 ft | 404 kts | 2° |
| 2026-05-06 21:03 | 37.84526 | -77.23162 | 22873 ft | 403 kts | 0° |
| 2026-05-06 21:03 | 37.87330 | -77.22466 | 22920 ft | 411 kts | 1° |
| 2026-05-06 21:03 | 37.90137 | -77.21725 | 22859 ft | 416 kts | 2° |
| 2026-05-06 21:03 | 37.92987 | -77.20982 | 22855 ft | 412 kts | 2° |
| 2026-05-06 21:04 | 37.95752 | -77.20264 | 22867 ft | 411 kts | 1° |
| 2026-05-06 21:04 | 37.98573 | -77.19531 | 22864 ft | 408 kts | 1° |
| 2026-05-06 21:04 | 38.01335 | -77.18809 | 22869 ft | 410 kts | 1° |
| 2026-05-06 21:04 | 38.04176 | -77.18061 | 22871 ft | 414 kts | 1° |
| 2026-05-06 21:05 | 38.06963 | -77.17327 | 22852 ft | 409 kts | 1° |
| 2026-05-06 21:05 | 38.09738 | -77.16602 | 22574 ft | 405 kts | 1° |
| 2026-05-06 21:05 | 38.12495 | -77.15902 | 21680 ft | 410 kts | 1° |
| 2026-05-06 21:05 | 38.15300 | -77.15189 | 20760 ft | 410 kts | 2° |
| 2026-05-06 21:06 | 38.18072 | -77.14471 | 20016 ft | 405 kts | 2° |
| 2026-05-06 21:06 | 38.20809 | -77.13754 | 19406 ft | 397 kts | 2° |
| 2026-05-06 21:06 | 38.23465 | -77.13055 | 18847 ft | 389 kts | 2° |
| 2026-05-06 21:06 | 38.26090 | -77.12365 | 18301 ft | 380 kts | 3° |
| 2026-05-06 21:07 | 38.28642 | -77.11682 | 17766 ft | 373 kts | 2° |
| 2026-05-06 21:07 | 38.31152 | -77.11021 | 17241 ft | 365 kts | 2° |
| 2026-05-06 21:07 | 38.33598 | -77.10365 | 16717 ft | 360 kts | 6° |
| 2026-05-06 21:07 | 38.35974 | -77.09370 | 16192 ft | 361 kts | 14° |
| 2026-05-06 21:08 | 38.38235 | -77.07989 | 15683 ft | 362 kts | 23° |
| 2026-05-06 21:08 | 38.40330 | -77.06231 | 15251 ft | 358 kts | 28° |
| 2026-05-06 21:08 | 38.42374 | -77.04414 | 14990 ft | 366 kts | 27° |
| 2026-05-06 21:08 | 38.44564 | -77.02503 | 14344 ft | 387 kts | 28° |
| 2026-05-06 21:09 | 38.46779 | -77.00560 | 13750 ft | 393 kts | 29° |
| 2026-05-06 21:09 | 38.49046 | -76.98553 | 13188 ft | 397 kts | 30° |
| 2026-05-06 21:09 | 38.51300 | -76.96542 | 12554 ft | 398 kts | 30° |
| 2026-05-06 21:09 | 38.53520 | -76.94550 | 12030 ft | 385 kts | 30° |
| 2026-05-06 21:10 | 38.55600 | -76.92545 | 11982 ft | 363 kts | 36° |
| 2026-05-06 21:10 | 38.57438 | -76.90387 | 11631 ft | 355 kts | 38° |
| 2026-05-06 21:10 | 38.59219 | -76.88208 | 10920 ft | 356 kts | 39° |
| 2026-05-06 21:10 | 38.61005 | -76.86056 | 10346 ft | 353 kts | 38° |
| 2026-05-06 21:11 | 38.62764 | -76.83932 | 10043 ft | 341 kts | 38° |
| 2026-05-06 21:11 | 38.64444 | -76.81907 | 9979 ft | 322 kts | 38° |
| 2026-05-06 21:11 | 38.66022 | -76.79999 | 9840 ft | 308 kts | 38° |
| 2026-05-06 21:11 | 38.67563 | -76.78142 | 9519 ft | 303 kts | 38° |
| 2026-05-06 21:12 | 38.69098 | -76.76302 | 9146 ft | 300 kts | 38° |
| 2026-05-06 21:12 | 38.70573 | -76.74387 | 9001 ft | 308 kts | 49° |
| 2026-05-06 21:12 | 38.71712 | -76.72017 | 8907 ft | 313 kts | 59° |
| 2026-05-06 21:12 | 38.72726 | -76.69594 | 8515 ft | 310 kts | 58° |
| 2026-05-06 21:13 | 38.73761 | -76.67202 | 8155 ft | 306 kts | 57° |
| 2026-05-06 21:13 | 38.74789 | -76.64851 | 7806 ft | 302 kts | 57° |
| 2026-05-06 21:13 | 38.75804 | -76.62515 | 7455 ft | 298 kts | 58° |
| 2026-05-06 21:13 | 38.76802 | -76.60215 | 7106 ft | 295 kts | 57° |
| 2026-05-06 21:14 | 38.77792 | -76.57922 | 6764 ft | 292 kts | 57° |
| 2026-05-06 21:14 | 38.78764 | -76.55683 | 6422 ft | 289 kts | 57° |
| 2026-05-06 21:14 | 38.79831 | -76.53522 | 6082 ft | 282 kts | 42° |
| 2026-05-06 21:14 | 38.81385 | -76.52081 | 5984 ft | 275 kts | 13° |
| 2026-05-06 21:15 | 38.83245 | -76.51608 | 5992 ft | 271 kts | 355° |
| 2026-05-06 21:15 | 38.85113 | -76.51505 | 5956 ft | 268 kts | 356° |
| 2026-05-06 21:15 | 38.86975 | -76.51356 | 5964 ft | 269 kts | 356° |
| 2026-05-06 21:15 | 38.88846 | -76.51186 | 5970 ft | 268 kts | 356° |
| 2026-05-06 21:16 | 38.90704 | -76.50781 | 5873 ft | 275 kts | 12° |
| 2026-05-06 21:16 | 38.92497 | -76.49894 | 5531 ft | 281 kts | 15° |
| 2026-05-06 21:16 | 38.94353 | -76.49021 | 5171 ft | 284 kts | 13° |
| 2026-05-06 21:16 | 38.96243 | -76.48219 | 4815 ft | 288 kts | 12° |
| 2026-05-06 21:17 | 38.98149 | -76.47433 | 4421 ft | 288 kts | 12° |
| 2026-05-06 21:17 | 39.00017 | -76.46663 | 4115 ft | 279 kts | 12° |
| 2026-05-06 21:17 | 39.01853 | -76.45909 | 3789 ft | 270 kts | 12° |
| 2026-05-06 21:17 | 39.03589 | -76.45201 | 3437 ft | 259 kts | 12° |
| 2026-05-06 21:18 | 39.05277 | -76.44511 | 3114 ft | 248 kts | 12° |
| 2026-05-06 21:18 | 39.06876 | -76.43860 | 2822 ft | 239 kts | 12° |
| 2026-05-06 21:18 | 39.08418 | -76.43244 | 2691 ft | 222 kts | 12° |
| 2026-05-06 21:18 | 39.09843 | -76.42658 | 2634 ft | 205 kts | 12° |
| 2026-05-06 21:19 | 39.11143 | -76.42121 | 2572 ft | 191 kts | 11° |
| 2026-05-06 21:19 | 39.12412 | -76.41585 | 2513 ft | 189 kts | 4° |
| 2026-05-06 21:19 | 39.13672 | -76.41713 | 2484 ft | 177 kts | 326° |
| 2026-05-06 21:19 | 39.14540 | -76.42697 | 2406 ft | 164 kts | 298° |
| 2026-05-06 21:20 | 39.15212 | -76.43893 | 2240 ft | 161 kts | 298° |
| 2026-05-06 21:20 | 39.15628 | -76.44658 | 2226 ft | 157 kts | 294° |
| 2026-05-06 21:20 | 39.16062 | -76.46418 | 2183 ft | 154 kts | 274° |
| 2026-05-06 21:20 | 39.16207 | -76.47798 | 2142 ft | 150 kts | 272° |
| 2026-05-06 21:21 | 39.16309 | -76.49084 | 2092 ft | 140 kts | 270° |
| 2026-05-06 21:21 | 39.16386 | -76.50291 | 2072 ft | 135 kts | 269° |
| 2026-05-06 21:21 | 39.16457 | -76.51504 | 2008 ft | 137 kts | 268° |
| 2026-05-06 21:21 | 39.16529 | -76.52711 | 1989 ft | 134 kts | 269° |
| 2026-05-06 21:22 | 39.16602 | -76.53955 | 1864 ft | 143 kts | 270° |
| 2026-05-06 21:22 | 39.16675 | -76.55199 | 1672 ft | 139 kts | 269° |
| 2026-05-06 21:22 | 39.16747 | -76.56437 | 1503 ft | 140 kts | 270° |
| 2026-05-06 21:22 | 39.16820 | -76.57703 | 1320 ft | 139 kts | 269° |
| 2026-05-06 21:23 | 39.16897 | -76.58972 | 1138 ft | 141 kts | 268° |
| 2026-05-06 21:23 | 39.16968 | -76.60236 | 947 ft | 144 kts | 270° |
| 2026-05-06 21:23 | 39.17042 | -76.61512 | 757 ft | 142 kts | 269° |
| 2026-05-06 21:23 | 39.17118 | -76.62789 | 568 ft | 145 kts | 269° |
| 2026-05-06 21:24 | 39.17191 | -76.64067 | 386 ft | 142 kts | 269° |
| 2026-05-06 21:24 | 39.17273 | -76.65358 | 168 ft | 145 kts | 268° |
| 2026-05-06 21:24 | 39.17331 | -76.66541 | 147 ft | 109 kts | 269° |
| 2026-05-06 21:24 | 39.17361 | -76.67086 | 145 ft | 36 kts | 282° |
| 2026-05-06 21:25 | 39.17571 | -76.67286 | 142 ft | 30 kts | 360° |
| 2026-05-06 21:25 | 39.17643 | -76.67232 | 143 ft | 7 kts | 13° |
| 2026-05-06 21:25 | 39.17758 | -76.67304 | 142 ft | 33 kts | 323° |
| 2026-05-06 21:25 | 39.17940 | -76.67355 | 141 ft | 20 kts | 43° |
| 2026-05-06 21:26 | 39.17959 | -76.67309 | 143 ft | 0 kts | 59° |